createdAt,value
2022-12-31T00:04:33.367Z,13.6
2022-12-31T00:18:42.592Z,13.7
2022-12-31T00:32:53.661Z,13.8
2022-12-31T00:47:05.221Z,14
2022-12-31T01:01:11.556Z,14.2
2022-12-31T01:15:19.437Z,14.4
2022-12-31T01:29:28.891Z,14.6
2022-12-31T01:43:36.039Z,14.7
2022-12-31T01:57:42.052Z,14.8
2022-12-31T02:11:47.428Z,14.7
2022-12-31T02:25:56.234Z,14.5
2022-12-31T02:40:06.731Z,14.5
2022-12-31T02:54:17.629Z,14.4
2022-12-31T03:08:27.195Z,14.5
2022-12-31T03:22:38.171Z,14.9
2022-12-31T03:36:49.119Z,15.1
2022-12-31T03:51:00.097Z,15.2
2022-12-31T04:05:07.834Z,15.4
2022-12-31T04:19:14.168Z,15.5
2022-12-31T04:33:21.275Z,15.3
2022-12-31T04:47:25.995Z,14.9
2022-12-31T05:01:38.817Z,15.4
2022-12-31T05:15:50.702Z,15.8
2022-12-31T05:29:59.498Z,16
2022-12-31T05:44:05.753Z,15.6
2022-12-31T05:58:16.098Z,15.8
2022-12-31T06:12:25.956Z,15.8
2022-12-31T06:26:32.217Z,16
2022-12-31T06:40:42.409Z,16
2022-12-31T06:54:50.299Z,16.1
2022-12-31T07:08:58.732Z,15
2022-12-31T07:23:07.430Z,14.5
2022-12-31T07:37:12.520Z,14.9
2022-12-31T07:51:22.657Z,15.1
2022-12-31T08:05:29.367Z,15.3
2022-12-31T08:19:40.775Z,15.5
2022-12-31T08:33:52.534Z,15.8
2022-12-31T08:48:04.106Z,15.9
2022-12-31T09:16:23.943Z,16
2022-12-31T09:30:32.440Z,16.3
2022-12-31T09:44:39.226Z,16.6
2022-12-31T09:58:48.992Z,16.7
2022-12-31T10:13:05.496Z,16.8
2022-12-31T10:27:12.711Z,16.8
2022-12-31T10:41:22.616Z,16.6
2022-12-31T10:55:31.750Z,16.8
2022-12-31T11:09:37.885Z,16.4
2022-12-31T11:23:45.676Z,15.7
2022-12-31T11:37:52.926Z,15.9
2022-12-31T11:52:04.611Z,16.2
2022-12-31T12:06:13.626Z,16.4
2022-12-31T12:20:24.354Z,16.4
2022-12-31T12:34:35.072Z,16.2
2022-12-31T12:48:40.112Z,15.5
2022-12-31T13:02:49.205Z,15.4
2022-12-31T13:31:09.197Z,16.1
2022-12-31T13:45:18.574Z,16.2
2022-12-31T13:59:26.180Z,16
2022-12-31T14:13:34.903Z,15.8
2022-12-31T14:27:43.322Z,15.8
2022-12-31T14:41:48.837Z,15.6
2022-12-31T14:56:00.825Z,15.5
2022-12-31T15:10:08.455Z,15.7
2022-12-31T15:24:18.181Z,15.5
2022-12-31T15:38:32.923Z,15.6
2022-12-31T15:52:44.951Z,15.1
2022-12-31T16:06:54.700Z,14.9
2022-12-31T16:20:59.399Z,14.8
2022-12-31T16:35:07.053Z,14.6
2022-12-31T16:49:15.306Z,14.7
2022-12-31T17:03:22.805Z,14.4
2022-12-31T17:17:27.842Z,14.3
2022-12-31T17:31:36.272Z,14.3
2022-12-31T17:45:47.064Z,14.3
2022-12-31T17:59:56.853Z,14.3
2022-12-31T18:14:03.355Z,14.7
2022-12-31T18:28:13.117Z,14.9
2022-12-31T18:42:21.467Z,15
2022-12-31T18:56:30.216Z,15
2022-12-31T19:10:42.351Z,15.1
2022-12-31T19:24:50.580Z,15.2
2022-12-31T19:38:59.533Z,15.1
2022-12-31T19:53:06.065Z,15.2
2022-12-31T20:07:23.691Z,15
2022-12-31T20:21:28.291Z,15
2022-12-31T20:35:39.019Z,15
2022-12-31T20:50:10.819Z,14.9
2022-12-31T21:04:05.681Z,15
2022-12-31T21:18:06.202Z,15
2022-12-31T21:32:15.622Z,15
2022-12-31T21:46:23.293Z,15
2022-12-31T22:00:43.663Z,15.2
2022-12-31T22:14:34.590Z,15.7
2022-12-31T22:28:42.036Z,15.7
2022-12-31T22:42:52.625Z,15.7
2022-12-31T22:57:02.464Z,15.7
2022-12-31T23:11:11.597Z,15.5
2022-12-31T23:25:16.352Z,15.2
2022-12-31T23:39:27.099Z,15
2022-12-31T23:53:35.072Z,14.6
